Airfield :
LOGIN :

Register | Disclaimer

   EN    FR    IT 

 










Legend :    VFR   Marginal VFR   IFR   Intensive IFR   Very Intensive IFR
Visi :
Ceiling :
>= 8 km
>= 3000ft
5 to 8 km
1000 to 3000 ft
1500m to 5 km
500 to 1000 ft
800 to 1500m
200 to 500 ft
< 800m
< 200 ft
Symbols :   Thunderstorms  Fog  Heavy snow  Heavy precipitations  Wind > 20 kt
SIGMETs :     Misc.  Thunderstorms  Icing  Turbulence  Mountain Waves  Volcanic Ashes







- Airport Elevation : 46 ft
- IATA code : SNN


EINN - Shannon

CURRENT METAR :
  • 210100Z 16017KT 9999 FEW018CB 12/10 Q0980 NOSIG

EXPIRED METARs :
  • 210030Z 15020G30KT 9999 -SHRA SCT018CB BKN035 12/09 Q0981 NOSIG
  • 210000Z 16020KT 9999 SCT018CB BKN035 12/09 Q0981 NOSIG
  • 202330Z 15019KT 9999 SCT018CB BKN035 12/09 Q0982 NOSIG
  • 202300Z 16020KT 9999 FEW018CB 12/10 Q0983 NOSIG
  • 202230Z 16019KT 9999 FEW019CB SCT045 12/10 Q0983 NOSIG

TAF TAF EINN
Valid from the 21 at 00:00 until the 22 at 00:00 UTC


202300Z 2100/2124 17022G35KT 9999 SCT020
TEMPO 2100/2115 5000 SHRA BKN013 SCT020CB
BECMG 2104/2106 24030G48KT
BECMG 2106/2108 29025G40KT
PROB40
TEMPO 2115/2120 7000 -SHRA FEW020CB
BECMG 2121/2124 30018G30KT
No reported NOTAMs for that airfield.
1 SIGMET reported for the Shannon FIR (EISN) :
 
Severe turbulence
EISN SIGMET 04 VALID 202230/210230 EINN
EISN SHANNON FIR SEV TURB FCST WI N5330 W01500 - N5300 W01300 - N5400 W01000 - N5155 W00700 - N5100 W00800 - N5100 W01500 - N5330 W01500 SFC/FL060 MOV E AT 20KT INTSF=



MET'MAP, your aeronautical weather chart ! - Copyright ORBIFLY December 2007 - Disclaimer

ORBIFLY MET'MAP TEAM :

Programming & Development : Alexandra Zaïnal
Concept & Development : Baudouin d'Aumeries
Co-Development & Prog : Marc-Olivier Méhu
Technical & hardware support : Manuel Goepfert

Contact : metmap@orbifly.com




SOURCES & CREDITS :

   NOAA